Isla De Los Estados, Argentina
Current Conditions -  °F | °C
As of 11:00 PM on Saturday 20 Dec 2014 (Local Time) from SAWH Reporting Station
Rain Showers Rain Showers  
Wind Chill: 28°   Ceiling: 4500
Heat Index: 39°   Visibility: 6mi
Dew Point: 34°   Wind: 24mph
Humidity: 81%   Direction: 270°W
Pressure: 29.62"   Gusts: NA
Location:  54.93°S, 64.65°W
Report Text: SAWH 210200Z 27021KT 9999 VCSH SCT030 BKN0450 04/01 Q1003 REDZ
Loading
Personal Weather Stations






























Interactive Weather Map New forecast layout! Learn more

10-Day Weather Forecast

Advertisements
Track Severe Weather on mobile